Time;durP1;ratioP1;P1;durP2;ratioP2;P2;SDS_P1;SDS_P2;PMS_P1;PMS_P2;Temp;Humidity;BMP_temperature;BMP_pressure;BME280_temperature;BME280_humidity;BME280_pressure;Samples;Min_cycle;Max_cycle;Signal;HPM_P1;HPM_P2
2021/08/26 00:00:00;;;;;;;8.20;4.63;;;20.30;85.60;;;;;;5055773;28;20029;-81
2021/08/26 00:07:54;;;;;;;7.45;5.40;;;20.20;88.20;;;;;;5057007;28;20438;-78
2021/08/26 00:10:23;;;;;;;7.80;5.10;;;20.10;89.30;;;;;;5055577;28;20025;-78
2021/08/26 00:12:50;;;;;;;9.32;5.53;;;20.00;90.10;;;;;;5056888;28;20025;-78
2021/08/26 00:15:16;;;;;;;9.40;5.18;;;19.90;90.70;;;;;;5056940;28;20375;-79
2021/08/26 00:17:42;;;;;;;7.82;5.13;;;20.00;91.10;;;;;;5055298;28;20033;-78
2021/08/26 00:20:08;;;;;;;6.13;4.53;;;19.90;91.10;;;;;;5055435;28;20182;-79
2021/08/26 00:22:35;;;;;;;8.70;5.60;;;20.00;91.20;;;;;;5056612;28;20044;-78
2021/08/26 00:25:02;;;;;;;8.20;5.05;;;19.90;91.30;;;;;;5055981;28;20032;-79
2021/08/26 00:27:27;;;;;;;6.10;4.15;;;19.80;91.60;;;;;;5055940;28;20127;-78
2021/08/26 00:29:53;;;;;;;7.10;4.78;;;19.80;91.50;;;;;;5055372;28;20065;-79
2021/08/26 00:32:19;;;;;;;7.65;5.13;;;19.80;91.70;;;;;;5056389;28;20067;-78
2021/08/26 00:34:44;;;;;;;8.30;5.20;;;19.70;91.70;;;;;;5056495;28;20356;-78
2021/08/26 00:37:10;;;;;;;5.22;3.90;;;19.70;92.00;;;;;;5056366;28;20430;-78
2021/08/26 00:39:36;;;;;;;6.47;4.95;;;19.70;92.10;;;;;;5056876;28;20061;-78
2021/08/26 00:42:03;;;;;;;6.50;4.22;;;19.70;92.00;;;;;;5057060;28;20142;-79
2021/08/26 00:44:28;;;;;;;7.65;4.20;;;19.60;91.60;;;;;;5055946;28;20056;-78
2021/08/26 00:46:54;;;;;;;6.95;4.15;;;19.60;92.00;;;;;;5056256;28;20052;-78
2021/08/26 00:49:20;;;;;;;6.07;4.55;;;19.60;91.50;;;;;;5054941;28;20028;-79
2021/08/26 00:51:46;;;;;;;5.75;3.75;;;19.60;91.70;;;;;;5055810;28;20047;-79
2021/08/26 00:54:12;;;;;;;6.07;4.85;;;19.50;91.20;;;;;;5054210;28;20021;-80
2021/08/26 00:56:39;;;;;;;6.47;4.10;;;19.50;91.80;;;;;;5056692;28;20028;-79
2021/08/26 00:59:07;;;;;;;6.07;4.20;;;19.50;91.60;;;;;;5054948;28;20051;-79
2021/08/26 01:02:00;;;;;;;7.75;3.70;;;19.40;91.40;;;;;;5055015;28;20021;-79
2021/08/26 01:04:38;;;;;;;6.10;4.30;;;19.40;91.30;;;;;;5055732;28;20411;-79
2021/08/26 01:07:08;;;;;;;5.45;4.10;;;19.30;91.70;;;;;;5055067;28;20399;-79
2021/08/26 01:09:46;;;;;;;6.05;4.22;;;19.30;92.00;;;;;;5055666;28;20083;-78
2021/08/26 01:12:19;;;;;;;5.60;4.25;;;19.30;91.50;;;;;;5054613;28;20033;-78
2021/08/26 01:14:46;;;;;;;6.18;4.40;;;19.30;91.90;;;;;;5055471;28;20024;-79
2021/08/26 01:17:23;;;;;;;7.15;5.20;;;19.30;91.80;;;;;;5054388;28;20055;-79
2021/08/26 01:19:49;;;;;;;6.40;4.25;;;19.30;91.90;;;;;;5054463;28;20121;-79
2021/08/26 01:22:20;;;;;;;7.35;4.40;;;19.20;91.80;;;;;;5055471;28;20088;-79
2021/08/26 01:25:08;;;;;;;6.00;4.65;;;19.10;92.20;;;;;;5055470;28;20029;-79
2021/08/26 01:27:37;;;;;;;8.48;5.10;;;19.20;92.60;;;;;;5053510;28;20070;-79
2021/08/26 01:30:05;;;;;;;5.97;4.05;;;19.10;92.70;;;;;;5055192;28;20387;-78
2021/08/26 01:32:31;;;;;;;5.50;4.10;;;19.10;92.60;;;;;;5054875;28;20028;-78
2021/08/26 01:34:57;;;;;;;6.45;3.97;;;19.10;92.40;;;;;;5054026;28;20033;-78
2021/08/26 01:37:24;;;;;;;4.97;4.07;;;19.10;92.30;;;;;;5053828;28;20032;-78
2021/08/26 01:39:51;;;;;;;6.90;4.15;;;19.10;92.30;;;;;;5053664;28;20036;-78
2021/08/26 01:42:19;;;;;;;7.22;4.05;;;19.00;91.90;;;;;;5053857;28;20377;-78
2021/08/26 01:44:45;;;;;;;5.05;3.60;;;19.00;91.80;;;;;;5055122;28;20111;-78
2021/08/26 01:47:18;;;;;;;7.28;3.90;;;19.00;91.40;;;;;;5053726;28;20140;-77
2021/08/26 01:49:45;;;;;;;5.78;4.53;;;19.10;91.80;;;;;;5055189;28;20036;-78
2021/08/26 01:52:13;;;;;;;6.18;4.72;;;19.10;92.30;;;;;;5053474;28;20032;-78
2021/08/26 01:54:39;;;;;;;6.30;4.15;;;19.10;92.70;;;;;;5054718;28;20021;-79
2021/08/26 01:57:05;;;;;;;5.03;3.95;;;19.10;92.70;;;;;;5055004;28;20027;-78
2021/08/26 01:59:32;;;;;;;6.10;3.65;;;19.10;92.30;;;;;;5055168;28;20025;-78
2021/08/26 02:01:58;;;;;;;5.38;3.30;;;19.10;91.80;;;;;;5054868;28;20025;-78
2021/08/26 02:04:24;;;;;;;6.22;3.88;;;19.10;91.50;;;;;;5052989;28;20055;-78
2021/08/26 02:06:49;;;;;;;4.97;3.15;;;19.10;91.30;;;;;;5053827;28;20036;-78
2021/08/26 02:09:15;;;;;;;4.75;3.45;;;19.10;91.10;;;;;;5054659;28;20410;-79
2021/08/26 02:11:41;;;;;;;4.18;3.35;;;19.00;91.10;;;;;;5054505;28;20402;-78
2021/08/26 02:14:06;;;;;;;5.38;3.58;;;19.00;91.10;;;;;;5054331;28;20036;-78
2021/08/26 02:16:32;;;;;;;5.43;3.35;;;19.00;91.00;;;;;;5053111;28;20039;-78
2021/08/26 02:18:58;;;;;;;5.00;3.63;;;19.00;91.00;;;;;;5054250;28;20100;-78
2021/08/26 02:21:27;;;;;;;4.85;3.42;;;19.00;90.90;;;;;;5054066;28;20032;-78
2021/08/26 02:23:54;;;;;;;5.20;4.00;;;19.00;91.00;;;;;;5053641;28;20036;-78
2021/08/26 02:26:20;;;;;;;5.30;3.75;;;19.00;91.00;;;;;;5054400;28;20025;-78
2021/08/26 02:28:46;;;;;;;6.40;4.10;;;19.00;91.10;;;;;;5054379;28;20056;-79
2021/08/26 02:31:11;;;;;;;5.90;4.10;;;19.10;91.10;;;;;;5054087;28;20467;-78
2021/08/26 02:33:37;;;;;;;5.15;4.20;;;19.10;91.00;;;;;;5052820;28;20110;-78
2021/08/26 02:36:03;;;;;;;6.78;4.05;;;19.10;91.00;;;;;;5052285;28;20455;-79
2021/08/26 02:38:28;;;;;;;4.55;3.85;;;19.10;90.90;;;;;;5052822;28;20471;-79
2021/08/26 02:40:54;;;;;;;4.88;3.92;;;19.00;90.80;;;;;;5052843;28;20112;-79
2021/08/26 02:43:20;;;;;;;6.88;3.75;;;19.00;90.80;;;;;;5052788;28;20025;-79
2021/08/26 02:45:45;;;;;;;4.60;3.75;;;19.00;90.70;;;;;;5052555;28;20028;-78
2021/08/26 02:48:11;;;;;;;5.68;4.35;;;18.90;90.70;;;;;;5053808;28;20490;-78
2021/08/26 02:50:37;;;;;;;5.80;4.03;;;18.90;90.80;;;;;;5052355;28;20464;-78
2021/08/26 02:53:02;;;;;;;5.40;4.20;;;18.80;90.90;;;;;;5053836;28;20029;-79
2021/08/26 02:55:28;;;;;;;5.47;4.10;;;18.80;90.90;;;;;;5054164;28;20029;-78
2021/08/26 02:57:54;;;;;;;5.88;4.00;;;18.80;90.90;;;;;;5052450;28;20025;-78
2021/08/26 03:00:20;;;;;;;5.95;4.35;;;18.70;90.90;;;;;;5052323;28;20486;-78
2021/08/26 03:02:46;;;;;;;5.75;4.50;;;18.70;90.90;;;;;;5052385;28;20090;-78
2021/08/26 03:05:11;;;;;;;5.10;4.30;;;18.60;90.80;;;;;;5052278;28;20056;-77
2021/08/26 03:07:37;;;;;;;5.93;4.72;;;18.50;91.00;;;;;;5053698;28;20060;-77
2021/08/26 03:10:03;;;;;;;5.20;4.28;;;18.50;91.20;;;;;;5053559;28;20478;-77
2021/08/26 03:12:29;;;;;;;5.68;4.30;;;18.50;91.40;;;;;;5053278;28;20025;-77
2021/08/26 03:14:54;;;;;;;6.00;4.68;;;18.50;91.30;;;;;;5052916;28;20429;-77
2021/08/26 03:17:20;;;;;;;7.25;5.47;;;18.50;91.40;;;;;;5052156;28;20021;-78
2021/08/26 03:19:46;;;;;;;6.43;4.65;;;18.40;91.50;;;;;;5052256;28;20082;-77
2021/08/26 03:22:11;;;;;;;5.40;4.50;;;18.40;91.90;;;;;;5054214;28;20029;-77
2021/08/26 03:24:37;;;;;;;7.78;5.28;;;18.40;91.80;;;;;;5053756;28;20480;-77
2021/08/26 03:27:04;;;;;;;7.90;5.38;;;18.40;91.80;;;;;;5053339;28;20387;-78
2021/08/26 03:29:30;;;;;;;5.93;4.95;;;18.40;91.60;;;;;;5052226;28;20071;-77
2021/08/26 03:31:55;;;;;;;8.32;5.00;;;18.40;91.70;;;;;;5053374;28;20404;-77
2021/08/26 03:34:21;;;;;;;6.88;4.80;;;18.40;92.10;;;;;;5053105;28;20071;-77
2021/08/26 03:36:46;;;;;;;7.55;5.22;;;18.50;92.30;;;;;;5053668;28;20104;-78
2021/08/26 03:39:12;;;;;;;6.55;4.65;;;18.50;92.10;;;;;;5053751;28;20036;-77
2021/08/26 03:41:38;;;;;;;6.28;4.18;;;18.50;92.10;;;;;;5052192;28;20060;-77
2021/08/26 03:44:04;;;;;;;7.53;4.97;;;18.60;91.90;;;;;;5053470;28;20025;-77
2021/08/26 03:46:30;;;;;;;6.13;4.00;;;18.70;91.60;;;;;;5053136;28;20079;-78
2021/08/26 03:48:56;;;;;;;6.25;4.70;;;18.80;91.70;;;;;;5051858;28;20455;-77
2021/08/26 03:51:22;;;;;;;5.47;4.50;;;18.90;92.00;;;;;;5053525;28;20029;-78
2021/08/26 03:53:48;;;;;;;6.93;4.72;;;18.90;91.70;;;;;;5052066;28;20032;-78
2021/08/26 03:56:13;;;;;;;7.57;4.97;;;19.00;91.40;;;;;;5053211;28;20029;-78
2021/08/26 03:58:39;;;;;;;7.13;5.20;;;19.10;91.40;;;;;;5051775;28;20036;-78
2021/08/26 04:01:06;;;;;;;8.60;5.35;;;19.10;91.10;;;;;;5053141;28;20529;-78
2021/08/26 04:03:32;;;;;;;14.05;5.85;;;19.20;91.20;;;;;;5051198;28;20459;-78
2021/08/26 04:05:57;;;;;;;8.02;6.30;;;19.20;91.20;;;;;;5053299;28;20044;-79
2021/08/26 04:08:23;;;;;;;7.25;6.03;;;19.30;91.30;;;;;;5053146;28;20486;-79
2021/08/26 04:10:49;;;;;;;8.05;5.30;;;19.40;91.40;;;;;;5052182;28;20021;-80
2021/08/26 04:13:15;;;;;;;7.20;5.32;;;19.40;91.10;;;;;;5052774;28;20382;-79
2021/08/26 04:15:40;;;;;;;6.88;5.00;;;19.40;90.90;;;;;;5052860;28;20032;-80
2021/08/26 04:18:06;;;;;;;6.97;4.50;;;19.50;90.80;;;;;;5051687;28;20021;-80
2021/08/26 04:20:32;;;;;;;7.90;5.35;;;19.60;90.60;;;;;;5051447;28;20033;-82
2021/08/26 04:22:58;;;;;;;6.07;4.32;;;19.80;90.50;;;;;;5053242;28;20033;-80
2021/08/26 04:25:23;;;;;;;5.60;4.25;;;19.80;89.30;;;;;;5052771;28;20037;-80
2021/08/26 04:27:49;;;;;;;7.85;4.28;;;19.80;87.90;;;;;;5051617;28;20021;-80
2021/08/26 04:30:15;;;;;;;6.50;4.20;;;19.80;87.30;;;;;;5055704;28;20456;-80
2021/08/26 04:32:41;;;;;;;8.70;4.10;;;19.90;86.60;;;;;;5054640;28;20021;-79
2021/08/26 04:35:07;;;;;;;6.55;4.47;;;19.90;86.40;;;;;;5055120;28;20040;-80
2021/08/26 04:37:33;;;;;;;5.90;4.43;;;19.90;87.60;;;;;;5055526;28;20031;-82
2021/08/26 04:39:58;;;;;;;6.57;4.53;;;19.90;87.10;;;;;;5056294;28;20031;-81
2021/08/26 04:42:24;;;;;;;6.53;4.63;;;20.00;87.10;;;;;;5056368;28;20100;-81
2021/08/26 04:44:50;;;;;;;6.10;5.00;;;20.00;86.60;;;;;;5054866;28;20040;-81
2021/08/26 04:47:15;;;;;;;6.03;4.18;;;20.10;87.00;;;;;;5056573;28;20084;-80
2021/08/26 04:49:41;;;;;;;5.32;4.13;;;20.10;86.90;;;;;;5055836;28;20467;-82
2021/08/26 04:52:07;;;;;;;5.70;3.90;;;20.20;87.10;;;;;;5059811;28;20029;-80
2021/08/26 04:54:32;;;;;;;6.93;4.88;;;20.30;86.80;;;;;;5058574;28;20025;-80
2021/08/26 04:56:58;;;;;;;7.28;4.88;;;20.30;87.50;;;;;;5055812;28;20470;-87
2021/08/26 04:59:24;;;;;;;5.68;4.03;;;20.50;87.50;;;;;;5058046;28;20025;-85
2021/08/26 05:01:49;;;;;;;5.97;3.83;;;20.70;87.00;;;;;;5053604;28;20021;-84
2021/08/26 05:04:22;;;;;;;5.47;4.00;;;20.90;85.60;;;;;;5053809;28;20049;-83
2021/08/26 05:06:48;;;;;;;7.47;4.47;;;21.10;85.20;;;;;;5052809;28;20033;-86
2021/08/26 05:09:14;;;;;;;7.45;3.58;;;21.30;83.30;;;;;;5054254;28;20025;-87
2021/08/26 05:11:39;;;;;;;5.00;3.70;;;21.40;82.30;;;;;;5055811;28;20044;-85
2021/08/26 05:14:05;;;;;;;4.85;3.47;;;21.50;81.10;;;;;;5054707;28;20024;-84
2021/08/26 05:16:31;;;;;;;5.57;3.80;;;21.60;80.20;;;;;;5054114;28;20037;-85
2021/08/26 05:18:56;;;;;;;4.80;3.47;;;21.60;78.80;;;;;;5054268;28;20062;-87
2021/08/26 05:21:22;;;;;;;5.15;3.40;;;21.70;77.90;;;;;;5055357;28;20029;-86
2021/08/26 05:23:48;;;;;;;5.07;3.50;;;21.70;78.50;;;;;;5054029;28;20029;-87
2021/08/26 05:26:13;;;;;;;5.05;3.13;;;21.70;78.70;;;;;;5054525;28;20037;-88
2021/08/26 05:28:41;;;;;;;4.38;3.30;;;21.70;77.60;;;;;;5053959;28;20087;-89
2021/08/26 05:31:07;;;;;;;5.55;3.83;;;21.80;78.20;;;;;;5055310;28;20075;-88
2021/08/26 05:33:32;;;;;;;5.78;4.03;;;21.90;78.60;;;;;;5054224;28;20028;-88
2021/08/26 05:35:58;;;;;;;4.00;2.90;;;22.00;77.90;;;;;;5054204;28;20060;-88
2021/08/26 05:38:24;;;;;;;6.00;3.28;;;22.00;76.10;;;;;;5055538;28;20057;-88
2021/08/26 05:40:49;;;;;;;7.25;3.38;;;22.00;75.50;;;;;;5054998;28;20039;-88
2021/08/26 05:43:15;;;;;;;5.90;3.72;;;22.00;76.30;;;;;;5055322;28;20024;-86
2021/08/26 05:45:41;;;;;;;5.95;3.10;;;22.10;76.60;;;;;;5053954;28;20083;-88
2021/08/26 05:48:06;;;;;;;4.82;3.17;;;22.00;76.80;;;;;;5055446;28;20025;-88
2021/08/26 05:50:32;;;;;;;5.47;3.42;;;22.00;76.30;;;;;;5053528;28;20434;-89
2021/08/26 05:52:58;;;;;;;5.82;3.50;;;22.00;76.40;;;;;;5055046;28;20032;-88
2021/08/26 05:55:23;;;;;;;7.22;3.97;;;21.90;76.20;;;;;;5053769;28;20029;-88
2021/08/26 05:57:49;;;;;;;5.55;4.00;;;21.90;76.60;;;;;;5053581;28;20056;-88
2021/08/26 06:00:15;;;;;;;6.32;3.80;;;21.80;77.00;;;;;;5054988;28;20463;-87
2021/08/26 06:02:41;;;;;;;6.20;3.63;;;21.70;76.50;;;;;;5053662;28;20028;-89
2021/08/26 06:05:07;;;;;;;6.53;4.10;;;21.70;76.90;;;;;;5054372;28;20049;-88
2021/08/26 06:07:33;;;;;;;5.75;3.92;;;21.70;77.40;;;;;;5054554;28;20029;-85
2021/08/26 06:09:58;;;;;;;6.65;4.10;;;21.70;76.30;;;;;;5054449;28;20021;-86
2021/08/26 06:12:24;;;;;;;6.75;4.13;;;21.60;76.30;;;;;;5053409;28;20431;-89
2021/08/26 06:14:50;;;;;;;5.72;4.15;;;21.60;75.90;;;;;;5053208;28;20032;-88
2021/08/26 06:17:15;;;;;;;6.88;3.60;;;21.60;75.60;;;;;;5054197;28;20062;-87
2021/08/26 06:19:41;;;;;;;5.90;3.70;;;21.60;76.50;;;;;;5054305;28;20183;-88
2021/08/26 06:22:07;;;;;;;5.80;4.72;;;21.70;76.60;;;;;;5055241;28;20112;-88
2021/08/26 06:24:32;;;;;;;5.97;4.25;;;21.70;76.10;;;;;;5057868;28;20022;-88
2021/08/26 06:27:01;;;;;;;7.43;4.38;;;21.70;75.80;;;;;;5058581;28;20029;-87
2021/08/26 06:29:27;;;;;;;8.25;4.35;;;21.70;76.50;;;;;;5058962;28;20410;-87
2021/08/26 06:31:53;;;;;;;6.95;5.00;;;21.80;76.70;;;;;;5058490;28;20021;-88
2021/08/26 06:34:19;;;;;;;6.45;4.53;;;22.00;76.90;;;;;;5056447;28;20047;-88
2021/08/26 06:36:44;;;;;;;6.63;4.88;;;22.00;76.30;;;;;;5054075;28;20036;-87
2021/08/26 06:39:10;;;;;;;6.70;4.88;;;22.10;75.80;;;;;;5053252;28;20431;-87
2021/08/26 06:41:36;;;;;;;7.47;5.05;;;22.20;75.00;;;;;;5057864;28;20104;-86
2021/08/26 06:44:02;;;;;;;8.02;5.10;;;22.30;75.00;;;;;;5057964;28;20075;-88
2021/08/26 06:46:28;;;;;;;7.35;5.10;;;22.50;75.30;;;;;;5054036;28;20041;-88
2021/08/26 06:48:55;;;;;;;8.55;5.38;;;22.70;74.40;;;;;;5053845;28;20017;-87
2021/08/26 06:51:21;;;;;;;7.13;5.28;;;22.90;74.10;;;;;;5052426;28;20029;-90
2021/08/26 06:53:47;;;;;;;6.85;5.13;;;23.10;73.10;;;;;;5053715;28;20021;-89
2021/08/26 06:56:13;;;;;;;5.93;4.78;;;23.20;72.20;;;;;;5052457;28;20028;-89
2021/08/26 06:58:39;;;;;;;5.97;4.47;;;23.30;71.80;;;;;;5053886;28;20082;-90
2021/08/26 07:01:05;;;;;;;6.93;4.95;;;23.50;71.80;;;;;;5052525;28;20028;-89
2021/08/26 07:03:30;;;;;;;9.80;5.60;;;23.70;71.80;;;;;;5053497;28;20390;-88
2021/08/26 07:05:56;;;;;;;8.00;5.35;;;24.00;71.70;;;;;;5053651;28;20076;-87
2021/08/26 07:08:22;;;;;;;7.35;5.60;;;24.30;70.70;;;;;;5053580;28;20032;-87
2021/08/26 07:10:48;;;;;;;8.70;4.95;;;24.50;69.40;;;;;;5053728;28;20063;-88
2021/08/26 07:13:14;;;;;;;6.82;5.32;;;24.70;67.80;;;;;;5052148;28;20032;-87
2021/08/26 07:15:40;;;;;;;7.50;5.60;;;24.70;66.80;;;;;;5053615;28;20035;-88
2021/08/26 07:18:06;;;;;;;7.10;5.05;;;24.70;66.40;;;;;;5053662;28;20029;-88
2021/08/26 07:20:32;;;;;;;6.05;5.15;;;24.60;66.10;;;;;;5053759;28;20025;-88
2021/08/26 07:22:58;;;;;;;5.95;5.35;;;24.70;66.40;;;;;;5053559;28;20459;-89
2021/08/26 07:25:24;;;;;;;6.75;4.97;;;25.00;66.60;;;;;;5053364;28;20025;-90
2021/08/26 07:27:50;;;;;;;11.00;6.05;;;25.50;65.90;;;;;;5052481;28;20029;-89
2021/08/26 07:30:15;;;;;;;7.63;5.78;;;25.80;65.20;;;;;;5053963;28;20103;-89
2021/08/26 07:32:41;;;;;;;8.20;5.65;;;25.90;65.30;;;;;;5053577;28;20027;-88
2021/08/26 07:35:07;;;;;;;8.02;5.55;;;26.00;64.90;;;;;;5057877;28;20079;-89
2021/08/26 07:37:33;;;;;;;7.38;5.93;;;26.20;64.20;;;;;;5067248;28;20029;-89
2021/08/26 07:39:58;;;;;;;7.43;5.85;;;26.30;63.50;;;;;;5065130;28;20070;-89
2021/08/26 07:42:24;;;;;;;7.43;5.57;;;26.30;63.10;;;;;;5054106;28;20024;-90
2021/08/26 07:44:50;;;;;;;7.53;6.32;;;26.60;62.80;;;;;;5053852;28;20025;-90
2021/08/26 07:47:15;;;;;;;8.18;6.55;;;26.90;62.40;;;;;;5053588;28;20032;-90
2021/08/26 07:49:41;;;;;;;7.35;6.55;;;27.30;61.70;;;;;;5052516;28;20029;-90
2021/08/26 07:52:07;;;;;;;8.77;6.40;;;27.70;60.70;;;;;;5053690;28;20023;-90
2021/08/26 07:54:32;;;;;;;6.85;5.97;;;28.10;60.10;;;;;;5053517;28;20029;-89
2021/08/26 07:56:58;;;;;;;7.00;5.50;;;28.80;60.20;;;;;;5052258;28;20052;-90
2021/08/26 07:59:24;;;;;;;7.47;6.10;;;29.30;58.90;;;;;;5053870;28;20459;-90
2021/08/26 08:01:50;;;;;;;7.18;5.55;;;29.40;57.70;;;;;;5057827;28;20471;-89
2021/08/26 08:04:16;;;;;;;7.78;5.95;;;29.20;57.20;;;;;;5074349;28;20055;-91
2021/08/26 08:06:42;;;;;;;7.55;5.78;;;29.30;57.70;;;;;;5073914;28;20041;-90
2021/08/26 08:09:08;;;;;;;7.10;5.63;;;29.60;57.40;;;;;;5076183;28;20036;-88
2021/08/26 08:11:33;;;;;;;10.25;6.85;;;29.80;57.60;;;;;;5066345;28;20079;-90
2021/08/26 08:14:01;;;;;;;9.68;5.82;;;29.90;56.80;;;;;;5069722;28;20048;-88
2021/08/26 08:16:27;;;;;;;7.65;6.00;;;30.00;56.40;;;;;;5059656;28;20037;-87
2021/08/26 08:18:53;;;;;;;6.68;5.57;;;30.10;55.80;;;;;;5055677;28;20025;-87
2021/08/26 08:21:18;;;;;;;6.70;5.90;;;30.10;55.20;;;;;;5056935;28;20070;-89
2021/08/26 08:23:44;;;;;;;7.68;5.72;;;30.40;54.60;;;;;;5056798;28;20464;-88
2021/08/26 08:26:11;;;;;;;7.32;5.78;;;30.70;54.70;;;;;;5056862;28;20033;-88
2021/08/26 08:28:38;;;;;;;6.47;5.43;;;31.00;54.20;;;;;;5056747;28;20147;-88
2021/08/26 08:31:05;;;;;;;7.68;5.35;;;31.10;54.00;;;;;;5056844;28;20036;-88
2021/08/26 08:33:31;;;;;;;8.07;5.43;;;31.20;53.20;;;;;;5056577;28;20138;-88
2021/08/26 08:35:57;;;;;;;6.07;5.28;;;31.30;53.20;;;;;;5055149;28;20036;-88
2021/08/26 08:38:23;;;;;;;7.22;5.97;;;31.40;52.90;;;;;;5056521;28;20025;-88
2021/08/26 08:40:49;;;;;;;7.20;5.93;;;31.40;52.20;;;;;;5056882;28;20029;-88
2021/08/26 08:43:15;;;;;;;9.60;6.85;;;31.60;52.40;;;;;;5055198;28;20386;-89
2021/08/26 08:45:45;;;;;;;8.05;6.28;;;31.80;52.10;;;;;;5056198;28;20041;-88
2021/08/26 08:48:11;;;;;;;6.90;5.60;;;32.00;51.70;;;;;;5054996;28;20116;-90
2021/08/26 08:50:39;;;;;;;8.45;6.53;;;32.20;51.60;;;;;;5054932;28;20087;-89
2021/08/26 08:53:06;;;;;;;7.53;5.88;;;32.40;51.30;;;;;;5056256;28;20459;-90
2021/08/26 08:55:31;;;;;;;7.63;5.63;;;32.60;50.50;;;;;;5056434;28;20490;-90
2021/08/26 08:57:57;;;;;;;9.38;6.60;;;32.60;49.70;;;;;;5056313;28;20108;-89
2021/08/26 09:00:24;;;;;;;8.55;6.10;;;32.50;49.60;;;;;;5057124;28;20387;-90
2021/08/26 09:02:49;;;;;;;7.43;5.25;;;32.40;50.10;;;;;;5054907;28;20029;-90
2021/08/26 09:05:15;;;;;;;6.82;5.30;;;32.60;50.20;;;;;;5054181;28;20049;-90
2021/08/26 09:07:41;;;;;;;6.97;5.30;;;32.80;50.10;;;;;;5055775;28;20040;-91
2021/08/26 09:10:07;;;;;;;7.55;5.50;;;33.10;50.70;;;;;;5055683;28;20040;-92
2021/08/26 09:12:49;;;;;;;5.95;4.72;;;33.20;50.10;;;;;;5054382;28;20031;-91
2021/08/26 09:15:26;;;;;;;7.60;5.07;;;33.30;50.20;;;;;;5055420;28;20037;-90
2021/08/26 09:18:12;;;;;;;8.18;6.00;;;33.10;49.90;;;;;;5055868;28;20107;-90
2021/08/26 09:20:55;;;;;;;8.88;6.03;;;33.00;49.80;;;;;;5055726;28;20053;-90
2021/08/26 09:23:23;;;;;;;7.93;6.15;;;32.80;50.00;;;;;;5056170;28;20025;-89
2021/08/26 09:25:49;;;;;;;6.75;5.38;;;32.60;49.90;;;;;;5054137;28;20040;-89
2021/08/26 09:28:45;;;;;;;7.45;5.90;;;32.70;50.30;;;;;;5055615;28;20040;-88
2021/08/26 09:31:16;;;;;;;7.53;5.70;;;32.80;50.30;;;;;;5054713;28;20045;-89
2021/08/26 09:33:51;;;;;;;7.25;5.38;;;32.60;50.50;;;;;;5055429;28;20102;-89
2021/08/26 09:36:22;;;;;;;7.93;6.45;;;32.40;51.30;;;;;;5055938;28;20033;-87
2021/08/26 09:38:56;;;;;;;7.95;6.13;;;32.00;50.90;;;;;;5053704;28;20486;-88
2021/08/26 09:41:35;;;;;;;8.68;7.28;;;31.70;51.70;;;;;;5055286;28;20224;-87
2021/08/26 09:44:02;;;;;;;11.23;7.47;;;31.40;51.40;;;;;;5058251;28;20025;-87
2021/08/26 09:46:30;;;;;;;11.32;7.50;;;31.10;51.60;;;;;;5059723;28;20391;-87
2021/08/26 09:49:13;;;;;;;9.32;7.28;;;30.80;51.70;;;;;;5056410;28;20036;-86
2021/08/26 09:51:39;;;;;;;11.25;7.57;;;30.20;52.30;;;;;;5056484;28;20525;-87
2021/08/26 09:54:34;;;;;;;11.20;7.80;;;29.70;53.20;;;;;;5055160;28;20099;-86
2021/08/26 09:57:00;;;;;;;9.60;8.20;;;29.10;54.50;;;;;;5055591;28;20033;-86
2021/08/26 09:59:47;;;;;;;11.13;8.10;;;28.70;55.20;;;;;;5057217;28;20274;-86
2021/08/26 10:02:14;;;;;;;11.60;8.35;;;28.30;56.60;;;;;;5053937;28;20534;-85
2021/08/26 10:04:41;;;;;;;13.50;9.40;;;27.90;57.20;;;;;;5053504;28;20395;-85
2021/08/26 10:07:07;;;;;;;13.52;9.65;;;27.60;58.00;;;;;;5054014;28;20562;-85
2021/08/26 10:09:33;;;;;;;13.15;8.50;;;27.40;58.70;;;;;;5054644;28;20031;-86
2021/08/26 10:11:59;;;;;;;12.57;8.13;;;27.20;59.90;;;;;;5053429;28;20053;-88
2021/08/26 10:14:26;;;;;;;13.23;8.93;;;27.00;61.30;;;;;;5053178;28;20040;-87
2021/08/26 10:16:53;;;;;;;12.50;8.23;;;26.70;62.00;;;;;;5053893;28;20040;-87
2021/08/26 10:19:19;;;;;;;11.82;8.70;;;26.50;63.40;;;;;;5053175;28;20036;-88
2021/08/26 10:21:46;;;;;;;11.98;8.75;;;26.20;63.50;;;;;;5054766;28;20032;-89
2021/08/26 10:24:13;;;;;;;10.82;8.00;;;26.00;64.50;;;;;;5054351;28;20036;-89
2021/08/26 10:26:43;;;;;;;10.73;8.10;;;25.90;65.00;;;;;;5053347;28;20036;-87
2021/08/26 10:29:10;;;;;;;9.60;8.13;;;25.70;65.40;;;;;;5054690;28;20056;-87
2021/08/26 10:31:37;;;;;;;10.27;8.40;;;25.60;65.20;;;;;;5054011;28;20025;-87
2021/08/26 10:34:21;;;;;;;12.25;8.27;;;25.40;66.00;;;;;;5054699;28;20048;-87
2021/08/26 10:37:19;;;;;;;12.10;8.38;;;25.40;65.90;;;;;;5053263;28;20395;-87
2021/08/26 10:39:47;;;;;;;11.35;8.15;;;25.30;66.00;;;;;;5053646;28;20041;-87
2021/08/26 10:42:28;;;;;;;11.63;8.25;;;25.10;66.40;;;;;;5055294;28;20029;-85
2021/08/26 10:45:02;;;;;;;11.05;8.10;;;25.10;67.10;;;;;;5053774;28;20036;-85
2021/08/26 10:47:50;;;;;;;9.00;8.05;;;25.00;67.10;;;;;;5053660;28;20047;-84
2021/08/26 10:50:20;;;;;;;10.05;7.28;;;25.00;67.40;;;;;;5054218;28;20478;-85
2021/08/26 10:53:11;;;;;;;10.68;7.95;;;25.10;67.70;;;;;;5052922;28;20486;-86
2021/08/26 10:55:46;;;;;;;9.30;7.63;;;25.20;67.30;;;;;;5053317;28;20033;-86
2021/08/26 10:58:21;;;;;;;8.95;8.05;;;25.20;67.40;;;;;;5052578;28;20387;-86
2021/08/26 11:00:49;;;;;;;9.57;7.30;;;25.30;67.50;;;;;;5052588;28;20025;-86
2021/08/26 11:03:33;;;;;;;10.68;7.85;;;25.20;67.40;;;;;;5054964;28;20498;-86
2021/08/26 11:06:18;;;;;;;12.07;7.95;;;25.30;67.20;;;;;;5054345;28;20017;-87
2021/08/26 11:09:17;;;;;;;9.13;7.72;;;25.20;67.10;;;;;;5053522;28;20128;-86
2021/08/26 11:11:47;;;;;;;8.98;7.18;;;25.20;67.40;;;;;;5053167;28;20037;-86
2021/08/26 11:14:13;;;;;;;10.85;8.23;;;25.10;67.80;;;;;;5053969;28;20028;-85
2021/08/26 11:16:47;;;;;;;11.60;7.68;;;24.90;68.00;;;;;;5052240;28;20028;-86
2021/08/26 11:19:15;;;;;;;9.25;7.97;;;24.90;68.60;;;;;;5056989;28;20340;-85
2021/08/26 11:21:44;;;;;;;11.55;8.43;;;24.80;68.70;;;;;;5055111;28;20032;-85
2021/08/26 11:24:30;;;;;;;14.27;8.40;;;24.70;69.10;;;;;;5056164;28;20040;-87
2021/08/26 11:27:04;;;;;;;10.25;8.13;;;24.90;69.60;;;;;;5052872;28;20136;-86
2021/08/26 11:29:29;;;;;;;10.05;8.95;;;25.00;69.20;;;;;;5057145;28;20025;-86
2021/08/26 11:31:56;;;;;;;9.18;8.02;;;25.20;69.00;;;;;;5057127;28;20383;-85
2021/08/26 11:34:48;;;;;;;10.05;7.93;;;25.30;68.80;;;;;;5055248;28;20482;-85
2021/08/26 11:37:21;;;;;;;10.05;8.07;;;25.30;68.10;;;;;;5058006;28;20104;-86
2021/08/26 11:39:58;;;;;;;8.90;8.00;;;25.30;68.20;;;;;;5059151;28;20047;-85
2021/08/26 11:42:29;;;;;;;9.40;8.38;;;25.10;68.20;;;;;;5058125;28;20064;-87
2021/08/26 11:45:11;;;;;;;11.40;7.93;;;24.90;68.50;;;;;;5056180;28;20021;-85
2021/08/26 11:48:01;;;;;;;10.05;7.88;;;24.70;69.20;;;;;;5057512;28;20029;-85
2021/08/26 11:50:35;;;;;;;13.32;9.15;;;24.50;70.10;;;;;;5055115;28;20040;-85
2021/08/26 11:53:06;;;;;;;13.13;9.27;;;24.40;70.80;;;;;;5057089;28;20025;-85
2021/08/26 11:55:52;;;;;;;10.27;8.57;;;24.20;71.00;;;;;;5057185;28;20028;-85
2021/08/26 11:58:18;;;;;;;10.73;9.23;;;24.10;71.60;;;;;;5055317;28;20029;-84
2021/08/26 12:00:48;;;;;;;13.15;9.77;;;24.00;72.30;;;;;;5056369;28;20082;-85
2021/08/26 12:03:15;;;;;;;14.57;10.82;;;23.90;73.20;;;;;;5055956;28;20089;-85
2021/08/26 12:05:41;;;;;;;13.02;10.27;;;23.70;74.00;;;;;;5057361;28;20037;-85
2021/08/26 12:08:08;;;;;;;18.02;11.48;;;23.50;74.50;;;;;;5057151;28;20162;-85
2021/08/26 12:10:39;;;;;;;16.95;11.52;;;23.20;75.70;;;;;;5056839;28;20021;-87
2021/08/26 12:13:07;;;;;;;12.05;10.27;;;23.00;77.20;;;;;;5057217;28;20021;-84
2021/08/26 12:15:39;;;;;;;13.95;12.10;;;22.80;78.20;;;;;;5059485;28;20032;-86
2021/08/26 12:18:11;;;;;;;15.88;11.85;;;22.80;78.80;;;;;;5057263;28;20025;-86
2021/08/26 12:20:49;;;;;;;15.50;13.57;;;22.70;80.00;;;;;;5057584;28;20056;-89
2021/08/26 12:23:20;;;;;;;16.20;13.77;;;22.70;80.10;;;;;;5055836;28;20028;-86
2021/08/26 12:26:09;;;;;;;17.17;14.02;;;22.70;81.30;;;;;;5057026;28;20040;-88
2021/08/26 12:28:38;;;;;;;15.85;11.45;;;22.70;81.80;;;;;;5057284;28;20029;-88
2021/08/26 12:31:11;;;;;;;16.60;12.20;;;22.80;81.90;;;;;;5057864;28;20114;-86
2021/08/26 12:33:40;;;;;;;15.13;12.90;;;22.80;82.20;;;;;;5058494;28;20025;-87
2021/08/26 12:36:05;;;;;;;16.50;12.68;;;22.80;82.50;;;;;;5056764;28;20043;-87
2021/08/26 12:38:42;;;;;;;16.67;13.40;;;22.80;82.80;;;;;;5057342;28;20516;-86
2021/08/26 12:41:12;;;;;;;15.85;12.10;;;22.80;82.80;;;;;;5057670;28;20436;-86
2021/08/26 12:43:53;;;;;;;16.35;13.15;;;22.70;82.70;;;;;;5056235;28;20424;-86
2021/08/26 12:46:28;;;;;;;14.85;12.40;;;22.70;83.30;;;;;;5057100;28;20127;-87
2021/08/26 12:49:08;;;;;;;13.80;12.30;;;22.70;83.20;;;;;;5057476;28;20550;-88
2021/08/26 12:51:35;;;;;;;17.23;14.00;;;22.70;83.10;;;;;;5055129;28;20028;-87
2021/08/26 12:54:01;;;;;;;16.25;14.48;;;22.70;83.40;;;;;;5056677;28;20025;-86